createdAt,value
2023-03-02T00:01:08.525Z,97910.56
2023-03-02T00:03:37.058Z,97902.53
2023-03-02T00:06:04.895Z,97901.47
2023-03-02T00:08:33.076Z,97904.03
2023-03-02T00:11:01.386Z,97906.09
2023-03-02T00:13:29.641Z,97915.28
2023-03-02T00:15:57.391Z,97915.03
2023-03-02T00:18:25.223Z,97905.31
2023-03-02T00:20:52.905Z,97894.75
2023-03-02T00:23:20.731Z,97895.41
2023-03-02T00:25:48.461Z,97888.78
2023-03-02T00:28:16.198Z,97894.34
2023-03-02T00:30:43.910Z,97887.81
2023-03-02T00:33:11.748Z,97888.22
2023-03-02T00:35:40.453Z,97893.34
2023-03-02T00:38:08.468Z,97883.44
2023-03-02T00:40:36.220Z,97874.06
2023-03-02T00:43:04.274Z,97873.16
2023-03-02T00:45:31.988Z,97876.19
2023-03-02T00:47:59.749Z,97870.91
2023-03-02T00:50:27.453Z,97871.63
2023-03-02T00:52:55.303Z,97859.97
2023-03-02T00:55:23.502Z,97855.13
2023-03-02T00:57:57.159Z,97859.84
2023-03-02T01:00:28.883Z,97853.41
2023-03-02T01:03:00.415Z,97854.88
2023-03-02T01:05:28.842Z,97850.53
2023-03-02T01:07:56.518Z,97852.22
2023-03-02T01:10:24.263Z,97848.56
2023-03-02T01:12:52.029Z,97849.88
2023-03-02T01:15:19.878Z,97845.00
2023-03-02T01:17:47.626Z,97847.91
2023-03-02T01:20:15.751Z,97845.56
2023-03-02T01:22:44.628Z,97835.06
2023-03-02T01:25:13.414Z,97836.94
2023-03-02T01:27:41.201Z,97830.69
2023-03-02T01:30:09.567Z,97835.22
2023-03-02T01:32:37.577Z,97830.22
2023-03-02T01:35:06.199Z,97829.66
2023-03-02T01:37:33.957Z,97827.94
2023-03-02T01:40:05.756Z,97818.34
2023-03-02T01:42:39.456Z,97824.59
2023-03-02T01:45:45.706Z,97816.13
2023-03-02T01:48:16.993Z,97818.78
2023-03-02T01:50:45.397Z,97816.16
2023-03-02T01:53:14.229Z,97818.66
2023-03-02T01:55:44.141Z,97816.06
2023-03-02T01:58:13.420Z,97820.44
2023-03-02T02:00:41.250Z,97815.31
2023-03-02T02:03:11.952Z,97801.91
2023-03-02T02:05:41.389Z,97805.41
2023-03-02T02:08:09.349Z,97799.56
2023-03-02T02:10:37.308Z,97804.59
2023-03-02T02:13:05.900Z,97799.09
2023-03-02T02:15:33.677Z,97795.63
2023-03-02T02:18:01.401Z,97797.41
2023-03-02T02:20:38.085Z,97796.50
2023-03-02T02:23:21.160Z,97786.97
2023-03-02T02:26:01.941Z,97788.56
2023-03-02T02:28:39.453Z,97791.75
2023-03-02T02:31:37.898Z,97781.19
2023-03-02T02:34:25.330Z,97794.03
2023-03-02T02:36:56.240Z,97789.84
2023-03-02T02:39:29.310Z,97786.78
2023-03-02T02:41:59.079Z,97805.09
2023-03-02T02:44:28.930Z,97799.25
2023-03-02T02:46:56.758Z,97799.97
2023-03-02T02:49:35.297Z,97801.03
2023-03-02T02:52:03.713Z,97793.34
2023-03-02T02:54:31.482Z,97796.00
2023-03-02T02:56:59.646Z,97793.94
2023-03-02T02:59:29.629Z,97790.03
2023-03-02T03:01:59.936Z,97796.19
2023-03-02T03:04:30.571Z,97788.44
2023-03-02T03:07:00.916Z,97803.84
2023-03-02T03:09:28.849Z,97797.16
2023-03-02T03:12:04.957Z,97796.78
2023-03-02T03:14:39.184Z,97799.06
2023-03-02T03:17:12.132Z,97790.50
2023-03-02T03:19:44.369Z,97794.06
2023-03-02T03:22:13.401Z,97796.66
2023-03-02T03:24:42.095Z,97784.50
2023-03-02T03:27:10.745Z,97791.84
2023-03-02T03:29:46.915Z,97794.41
2023-03-02T03:32:15.975Z,97793.47
2023-03-02T03:34:43.997Z,97793.06
2023-03-02T03:37:26.020Z,97791.22
2023-03-02T03:39:54.164Z,97791.28
2023-03-02T03:42:23.794Z,97800.38
2023-03-02T03:44:52.471Z,97792.47
2023-03-02T03:47:20.345Z,97800.13
2023-03-02T03:49:48.632Z,97795.03
2023-03-02T03:52:16.381Z,97798.44
2023-03-02T03:54:44.586Z,97792.56
2023-03-02T03:57:12.300Z,97800.53
2023-03-02T03:59:40.732Z,97795.69
2023-03-02T04:02:08.562Z,97800.53
2023-03-02T04:04:43.062Z,97803.31
2023-03-02T04:07:16.790Z,97806.75
2023-03-02T04:09:45.675Z,97809.97
2023-03-02T04:12:15.296Z,97798.44
2023-03-02T04:14:49.266Z,97793.22
2023-03-02T04:17:17.127Z,97788.81
2023-03-02T04:19:47.456Z,97791.66
2023-03-02T04:22:16.329Z,97795.63
2023-03-02T04:24:44.213Z,97792.38
2023-03-02T04:27:13.347Z,97802.84
2023-03-02T04:29:41.314Z,97797.84
2023-03-02T04:32:09.694Z,97807.16
2023-03-02T04:34:39.490Z,97795.34
2023-03-02T04:37:07.552Z,97789.28
2023-03-02T04:39:35.374Z,97797.53
2023-03-02T04:42:03.089Z,97794.31
2023-03-02T04:44:30.856Z,97794.53
2023-03-02T04:46:58.566Z,97803.03
2023-03-02T04:49:26.380Z,97805.16
2023-03-02T04:51:54.066Z,97801.19
2023-03-02T04:54:23.901Z,97805.09
2023-03-02T04:56:51.785Z,97799.00
2023-03-02T04:59:22.364Z,97811.75
2023-03-02T05:01:50.335Z,97807.31
2023-03-02T05:04:18.773Z,97805.28
2023-03-02T05:06:46.568Z,97807.38
2023-03-02T05:09:14.497Z,97807.06
2023-03-02T05:11:42.185Z,97801.44
2023-03-02T05:14:11.041Z,97801.88
2023-03-02T05:16:39.810Z,97801.25
2023-03-02T05:19:08.628Z,97794.69
2023-03-02T05:21:36.378Z,97809.44
2023-03-02T05:24:04.399Z,97816.28
2023-03-02T05:26:32.588Z,97808.53
2023-03-02T05:29:00.470Z,97810.53
2023-03-02T05:31:37.640Z,97814.03
2023-03-02T05:34:06.361Z,97817.47
2023-03-02T05:36:34.353Z,97820.25
2023-03-02T05:39:02.374Z,97823.09
2023-03-02T05:41:30.281Z,97824.09
2023-03-02T05:43:58.074Z,97827.28
2023-03-02T05:46:25.937Z,97822.72
2023-03-02T05:48:53.823Z,97828.25
2023-03-02T05:51:21.626Z,97826.94
2023-03-02T05:53:49.436Z,97821.97
2023-03-02T05:56:17.689Z,97820.44
2023-03-02T05:58:45.431Z,97817.75
2023-03-02T06:01:15.440Z,97810.28
2023-03-02T06:03:43.610Z,97812.72
2023-03-02T06:06:14.283Z,97823.06
2023-03-02T06:08:43.065Z,97826.94
2023-03-02T06:11:11.403Z,97827.41
2023-03-02T06:13:39.635Z,97827.88
2023-03-02T06:16:08.156Z,97826.78
2023-03-02T06:18:36.273Z,97831.91
2023-03-02T06:21:04.338Z,97839.44
2023-03-02T06:23:32.161Z,97829.97
2023-03-02T06:26:00.009Z,97833.56
2023-03-02T06:28:27.757Z,97835.94
2023-03-02T06:30:55.569Z,97833.00
2023-03-02T06:33:23.287Z,97836.44
2023-03-02T06:35:51.208Z,97836.84
2023-03-02T06:38:19.013Z,97852.06
2023-03-02T06:40:46.827Z,97845.94
2023-03-02T06:43:14.671Z,97838.72
2023-03-02T06:45:42.449Z,97842.44
2023-03-02T06:48:10.184Z,97846.50
2023-03-02T06:50:38.745Z,97854.53
2023-03-02T06:53:06.395Z,97846.56
2023-03-02T06:55:34.193Z,97846.81
2023-03-02T06:58:01.894Z,97847.66
2023-03-02T07:00:29.695Z,97846.72
2023-03-02T07:02:57.399Z,97849.28
2023-03-02T07:05:25.241Z,97851.69
2023-03-02T07:07:52.950Z,97846.34
2023-03-02T07:10:20.919Z,97846.44
2023-03-02T07:12:48.759Z,97843.25
2023-03-02T07:15:17.552Z,97844.50
2023-03-02T07:17:45.521Z,97839.50
2023-03-02T07:20:15.763Z,97836.09
2023-03-02T07:22:43.454Z,97839.75
2023-03-02T07:25:11.571Z,97852.41
2023-03-02T07:27:39.395Z,97843.13
2023-03-02T07:30:07.751Z,97844.16
2023-03-02T07:32:35.540Z,97854.47
2023-03-02T07:35:03.419Z,97858.00
2023-03-02T07:37:31.125Z,97832.97
2023-03-02T07:40:00.712Z,97840.78
2023-03-02T07:42:28.660Z,97854.44
2023-03-02T07:44:59.125Z,97840.50
2023-03-02T07:47:26.889Z,97838.66
2023-03-02T07:49:54.636Z,97835.59
2023-03-02T07:52:22.293Z,97836.56
2023-03-02T07:54:50.094Z,97833.19
2023-03-02T07:57:18.220Z,97825.84
2023-03-02T07:59:46.020Z,97834.81
2023-03-02T08:02:15.268Z,97836.38
2023-03-02T08:04:43.124Z,97834.97
2023-03-02T08:07:10.845Z,97824.63
2023-03-02T08:09:39.725Z,97825.53
2023-03-02T08:12:07.507Z,97829.97
2023-03-02T08:14:35.282Z,97828.19
2023-03-02T08:17:04.687Z,97827.75
2023-03-02T08:19:32.548Z,97824.09
2023-03-02T08:22:01.228Z,97828.16
2023-03-02T08:24:28.985Z,97824.88
2023-03-02T08:26:56.891Z,97820.66
2023-03-02T08:29:24.666Z,97827.81
2023-03-02T08:31:52.480Z,97833.25
2023-03-02T08:34:20.328Z,97828.38
2023-03-02T08:36:48.039Z,97827.41
2023-03-02T08:39:15.900Z,97827.56
2023-03-02T08:41:43.582Z,97831.34
2023-03-02T08:44:11.374Z,97828.41
2023-03-02T08:46:39.067Z,97827.19
2023-03-02T08:49:06.886Z,97828.28
2023-03-02T08:51:34.853Z,97833.41
2023-03-02T08:54:02.756Z,97827.81
2023-03-02T08:56:32.854Z,97827.47
2023-03-02T08:59:05.947Z,97827.38
2023-03-02T09:01:35.296Z,97829.59
2023-03-02T09:04:04.723Z,97823.63
2023-03-02T09:06:34.131Z,97819.91
2023-03-02T09:09:02.014Z,97828.16
2023-03-02T09:11:29.810Z,97833.25
2023-03-02T09:13:57.539Z,97816.38
2023-03-02T09:16:25.919Z,97826.63
2023-03-02T09:18:53.984Z,97825.78
2023-03-02T09:21:21.823Z,97819.66
2023-03-02T09:23:53.666Z,97830.13
2023-03-02T09:26:21.871Z,97817.25
2023-03-02T09:28:49.692Z,97823.47
2023-03-02T09:31:17.512Z,97826.38
2023-03-02T09:33:45.209Z,97827.47
2023-03-02T09:36:16.289Z,97827.75
2023-03-02T09:38:44.046Z,97829.66
2023-03-02T09:41:20.802Z,97822.56
2023-03-02T09:44:16.176Z,97830.22
2023-03-02T09:46:50.927Z,97815.44
2023-03-02T09:49:46.446Z,97821.50
2023-03-02T09:52:36.462Z,97826.69
2023-03-02T09:55:14.146Z,97816.72
2023-03-02T09:57:42.185Z,97820.25
2023-03-02T10:00:21.830Z,97821.41
2023-03-02T10:03:02.488Z,97818.50
2023-03-02T10:05:39.644Z,97824.97
2023-03-02T10:08:20.478Z,97819.88
2023-03-02T10:10:58.095Z,97817.09
2023-03-02T10:13:31.514Z,97823.94
2023-03-02T10:15:59.234Z,97833.28
2023-03-02T10:18:35.644Z,97817.53
2023-03-02T10:21:23.049Z,97822.94
2023-03-02T10:24:13.443Z,97820.00
2023-03-02T10:26:41.221Z,97815.34
2023-03-02T10:29:23.989Z,97815.69
2023-03-02T10:32:24.723Z,97813.81
2023-03-02T10:34:52.755Z,97806.13
2023-03-02T10:37:25.596Z,97807.25
2023-03-02T10:39:53.557Z,97811.97
2023-03-02T10:42:28.883Z,97805.78
2023-03-02T10:45:01.520Z,97810.91
2023-03-02T10:47:29.331Z,97807.78
2023-03-02T10:49:57.446Z,97808.59
2023-03-02T10:52:26.526Z,97800.84
2023-03-02T10:55:13.074Z,97798.00
2023-03-02T10:57:44.344Z,97797.03
2023-03-02T11:00:22.397Z,97789.75
2023-03-02T11:02:50.079Z,97797.00
2023-03-02T11:05:17.685Z,97797.47
2023-03-02T11:08:16.565Z,97791.22
2023-03-02T11:10:59.778Z,97785.00
2023-03-02T11:13:38.974Z,97790.13
2023-03-02T11:16:18.882Z,97791.53
2023-03-02T11:18:54.243Z,97789.56
2023-03-02T11:21:25.295Z,97788.84
2023-03-02T11:24:16.995Z,97787.50
2023-03-02T11:26:53.810Z,97784.19
2023-03-02T11:29:30.384Z,97789.03
2023-03-02T11:32:09.835Z,97783.75
2023-03-02T11:34:49.795Z,97791.03
2023-03-02T11:37:24.413Z,97795.41
2023-03-02T11:40:01.106Z,97787.44
2023-03-02T11:42:31.295Z,97787.75
2023-03-02T11:45:02.055Z,97788.56
2023-03-02T11:47:31.398Z,97793.13
2023-03-02T11:50:01.939Z,97789.81
2023-03-02T11:52:31.636Z,97790.72
2023-03-02T11:55:03.374Z,97795.03
2023-03-02T11:57:35.817Z,97788.28
2023-03-02T12:00:15.751Z,97790.09
2023-03-02T12:02:43.499Z,97781.78
2023-03-02T12:05:25.614Z,97778.00
2023-03-02T12:08:00.749Z,97781.13
2023-03-02T12:10:36.672Z,97784.75
2023-03-02T12:13:27.608Z,97779.47
2023-03-02T12:15:56.469Z,97778.28
2023-03-02T12:18:24.853Z,97781.84
2023-03-02T12:21:03.553Z,97786.66
2023-03-02T12:23:34.335Z,97786.78
2023-03-02T12:26:21.507Z,97778.00
2023-03-02T12:29:15.275Z,97773.19
2023-03-02T12:31:47.669Z,97775.38
2023-03-02T12:34:24.517Z,97776.69
2023-03-02T12:36:57.384Z,97775.25
2023-03-02T12:39:55.349Z,97778.84
2023-03-02T12:42:47.277Z,97782.28
2023-03-02T12:45:24.596Z,97780.63
2023-03-02T12:48:01.516Z,97769.94
2023-03-02T12:50:31.252Z,97773.66
2023-03-02T12:53:00.550Z,97772.59
2023-03-02T12:55:28.580Z,97769.66
2023-03-02T12:57:58.249Z,97761.59
2023-03-02T13:00:31.405Z,97757.16
2023-03-02T13:02:59.902Z,97759.88
2023-03-02T13:05:29.967Z,97771.47
2023-03-02T13:08:16.474Z,97768.56
2023-03-02T13:10:52.266Z,97765.59
2023-03-02T13:13:28.074Z,97759.78
2023-03-02T13:16:03.798Z,97759.31
2023-03-02T13:18:33.799Z,97750.59
2023-03-02T13:21:01.926Z,97758.16
2023-03-02T13:23:30.824Z,97750.00
2023-03-02T13:26:01.418Z,97752.03
2023-03-02T13:28:38.330Z,97743.13
2023-03-02T13:31:14.631Z,97748.72
2023-03-02T13:33:46.390Z,97752.94
2023-03-02T13:36:20.789Z,97734.00
2023-03-02T13:38:50.093Z,97737.63
2023-03-02T13:41:36.719Z,97736.47
2023-03-02T13:44:23.198Z,97720.41
2023-03-02T13:46:50.986Z,97726.88
2023-03-02T13:49:35.762Z,97719.84
2023-03-02T13:52:23.638Z,97722.84
2023-03-02T13:54:51.394Z,97720.56
2023-03-02T13:57:25.363Z,97713.47
2023-03-02T13:59:53.187Z,97704.88
2023-03-02T14:02:23.896Z,97710.44
2023-03-02T14:04:51.830Z,97713.56
2023-03-02T14:07:19.625Z,97710.38
2023-03-02T14:09:47.804Z,97714.03
2023-03-02T14:12:25.618Z,97712.66
2023-03-02T14:14:53.486Z,97711.53
2023-03-02T14:17:22.928Z,97712.13
2023-03-02T14:19:52.921Z,97719.53
2023-03-02T14:22:21.063Z,97705.91
2023-03-02T14:24:48.999Z,97715.28
2023-03-02T14:27:16.911Z,97708.63
2023-03-02T14:29:45.230Z,97700.81
2023-03-02T14:32:13.918Z,97709.09
2023-03-02T14:34:41.838Z,97697.91
2023-03-02T14:37:18.068Z,97694.19
2023-03-02T14:39:47.218Z,97698.34
2023-03-02T14:42:16.218Z,97700.53
2023-03-02T14:44:44.355Z,97701.66
2023-03-02T14:47:12.168Z,97709.03
2023-03-02T14:49:40.083Z,97704.03
2023-03-02T14:52:09.087Z,97710.94
2023-03-02T14:54:39.513Z,97707.59
2023-03-02T14:57:13.468Z,97715.38
2023-03-02T14:59:41.184Z,97717.38
2023-03-02T15:02:24.396Z,97722.84
2023-03-02T15:04:56.515Z,97721.72
2023-03-02T15:07:25.716Z,97714.25
2023-03-02T15:09:54.845Z,97723.53
2023-03-02T15:12:22.584Z,97715.47
2023-03-02T15:14:50.346Z,97719.97
2023-03-02T15:17:18.110Z,97711.69
2023-03-02T15:19:45.876Z,97697.09
2023-03-02T15:22:13.728Z,97702.81
2023-03-02T15:24:41.514Z,97707.81
2023-03-02T15:27:09.199Z,97703.47
2023-03-02T15:29:36.919Z,97709.03
2023-03-02T15:32:04.822Z,97701.88
2023-03-02T15:34:32.636Z,97702.31
2023-03-02T15:37:00.362Z,97708.38
2023-03-02T15:39:28.145Z,97697.09
2023-03-02T15:41:55.919Z,97695.22
2023-03-02T15:44:24.283Z,97697.03
2023-03-02T15:46:56.673Z,97704.34
2023-03-02T15:49:27.328Z,97707.06
2023-03-02T15:51:58.062Z,97703.47
2023-03-02T15:54:26.206Z,97710.91
2023-03-02T15:56:54.407Z,97702.84
2023-03-02T15:59:26.469Z,97701.78
2023-03-02T16:01:54.502Z,97704.09
2023-03-02T16:04:22.166Z,97706.28
2023-03-02T16:06:49.955Z,97712.56
2023-03-02T16:09:17.867Z,97728.09
2023-03-02T16:11:45.625Z,97721.88
2023-03-02T16:14:15.617Z,97725.44
2023-03-02T16:16:44.293Z,97736.63
2023-03-02T16:19:13.713Z,97742.13
2023-03-02T16:21:41.530Z,97745.00
2023-03-02T16:24:09.252Z,97749.34
2023-03-02T16:26:37.744Z,97756.84
2023-03-02T16:29:05.813Z,97751.94
2023-03-02T16:31:37.484Z,97757.31
2023-03-02T16:34:09.619Z,97755.59
2023-03-02T16:36:38.397Z,97755.50
2023-03-02T16:39:06.404Z,97757.69
2023-03-02T16:41:34.284Z,97765.44
2023-03-02T16:44:02.044Z,97761.72
2023-03-02T16:46:31.858Z,97762.59
2023-03-02T16:48:59.712Z,97760.31
2023-03-02T16:51:27.406Z,97767.06
2023-03-02T16:53:55.126Z,97756.22
2023-03-02T16:56:22.861Z,97754.75
2023-03-02T16:58:50.580Z,97756.47
2023-03-02T17:01:20.081Z,97753.41
2023-03-02T17:03:49.471Z,97765.28
2023-03-02T17:06:19.787Z,97766.75
2023-03-02T17:08:47.497Z,97768.41
2023-03-02T17:11:15.365Z,97755.69
2023-03-02T17:13:43.090Z,97758.94
2023-03-02T17:16:10.912Z,97766.81
2023-03-02T17:18:38.646Z,97764.88
2023-03-02T17:21:06.562Z,97772.56
2023-03-02T17:23:34.291Z,97776.63
2023-03-02T17:26:02.062Z,97772.28
2023-03-02T17:28:29.730Z,97776.00
2023-03-02T17:30:57.677Z,97773.34
2023-03-02T17:33:25.429Z,97774.44
2023-03-02T17:35:53.275Z,97765.31
2023-03-02T17:38:20.968Z,97775.06
2023-03-02T17:40:48.691Z,97770.63
2023-03-02T17:43:16.433Z,97765.00
2023-03-02T17:45:44.218Z,97758.50
2023-03-02T17:48:11.920Z,97764.56
2023-03-02T17:50:39.782Z,97761.50
2023-03-02T17:53:07.460Z,97759.31
2023-03-02T17:55:35.287Z,97753.19
2023-03-02T17:58:02.991Z,97753.31
2023-03-02T18:00:30.871Z,97754.38
2023-03-02T18:02:58.550Z,97758.47
2023-03-02T18:05:27.138Z,97757.16
2023-03-02T18:07:54.930Z,97753.56
2023-03-02T18:10:22.648Z,97753.81
2023-03-02T18:12:51.764Z,97760.53
2023-03-02T18:15:21.282Z,97758.91
2023-03-02T18:17:49.085Z,97756.50
2023-03-02T18:20:16.835Z,97757.00
2023-03-02T18:22:44.558Z,97760.41
2023-03-02T18:25:12.389Z,97750.16
2023-03-02T18:27:40.142Z,97756.38
2023-03-02T18:30:08.682Z,97753.72
2023-03-02T18:32:36.507Z,97743.50
2023-03-02T18:35:04.700Z,97747.91
2023-03-02T18:37:34.043Z,97742.03
2023-03-02T18:40:02.153Z,97746.81
2023-03-02T18:42:30.471Z,97751.56
2023-03-02T18:44:58.405Z,97752.66
2023-03-02T18:47:26.554Z,97752.19
2023-03-02T18:49:54.302Z,97749.50
2023-03-02T18:52:22.002Z,97746.56
2023-03-02T18:54:49.910Z,97746.88
2023-03-02T18:57:17.629Z,97752.16
2023-03-02T18:59:45.329Z,97744.19
2023-03-02T19:02:13.286Z,97740.03
2023-03-02T19:04:41.018Z,97739.41
2023-03-02T19:07:08.958Z,97731.19
2023-03-02T19:09:36.665Z,97731.28
2023-03-02T19:12:04.832Z,97723.38
2023-03-02T19:14:32.537Z,97728.03
2023-03-02T19:17:00.395Z,97723.69
2023-03-02T19:19:28.784Z,97724.28
2023-03-02T19:21:57.728Z,97726.75
2023-03-02T19:24:25.450Z,97730.56
2023-03-02T19:26:53.262Z,97729.59
2023-03-02T19:29:22.193Z,97729.34
2023-03-02T19:31:50.043Z,97732.47
2023-03-02T19:34:17.751Z,97738.13
2023-03-02T19:36:46.671Z,97745.34
2023-03-02T19:39:14.390Z,97739.97
2023-03-02T19:41:42.141Z,97738.75
2023-03-02T19:44:10.456Z,97738.88
2023-03-02T19:46:38.994Z,97735.50
2023-03-02T19:49:06.673Z,97726.91
2023-03-02T19:51:34.479Z,97737.31
2023-03-02T19:54:04.047Z,97741.81
2023-03-02T19:56:35.021Z,97733.81
2023-03-02T19:59:03.209Z,97740.59
2023-03-02T20:01:31.505Z,97738.50
2023-03-02T20:04:00.209Z,97732.59
2023-03-02T20:06:33.362Z,97731.53
2023-03-02T20:09:02.645Z,97740.03
2023-03-02T20:11:31.322Z,97733.47
2023-03-02T20:14:05.005Z,97734.84
2023-03-02T20:16:33.777Z,97724.69
2023-03-02T20:19:02.011Z,97721.53
2023-03-02T20:21:30.386Z,97730.16
2023-03-02T20:23:58.150Z,97725.50
2023-03-02T20:26:26.048Z,97729.09
2023-03-02T20:28:54.064Z,97724.47
2023-03-02T20:31:23.646Z,97711.31
2023-03-02T20:33:52.331Z,97709.63
2023-03-02T20:36:29.480Z,97718.00
2023-03-02T20:38:59.399Z,97719.09
2023-03-02T20:41:27.184Z,97706.56
2023-03-02T20:43:54.934Z,97697.13
2023-03-02T20:46:25.806Z,97698.91
2023-03-02T20:48:53.722Z,97698.50
2023-03-02T20:51:21.478Z,97689.06
2023-03-02T20:53:49.230Z,97703.47
2023-03-02T20:56:20.666Z,97695.31
2023-03-02T20:58:48.466Z,97696.22
2023-03-02T21:01:16.550Z,97699.69
2023-03-02T21:03:44.840Z,97696.19
2023-03-02T21:06:13.697Z,97691.34
2023-03-02T21:08:41.420Z,97700.75
2023-03-02T21:11:11.724Z,97696.31
2023-03-02T21:13:39.609Z,97692.59
2023-03-02T21:16:08.626Z,97696.78
2023-03-02T21:18:36.352Z,97686.16
2023-03-02T21:21:04.348Z,97683.53
2023-03-02T21:23:32.104Z,97684.69
2023-03-02T21:25:59.846Z,97684.66
2023-03-02T21:28:27.920Z,97682.41
2023-03-02T21:30:55.629Z,97685.69
2023-03-02T21:33:23.394Z,97681.91
2023-03-02T21:35:51.098Z,97688.72
2023-03-02T21:38:19.956Z,97694.69
2023-03-02T21:40:47.666Z,97682.63
2023-03-02T21:43:15.573Z,97686.72
2023-03-02T21:45:43.325Z,97684.75
2023-03-02T21:48:12.458Z,97687.47
2023-03-02T21:50:40.307Z,97683.56
2023-03-02T21:53:08.596Z,97684.59
2023-03-02T21:55:36.422Z,97688.19
2023-03-02T21:58:04.177Z,97686.44
2023-03-02T22:00:33.971Z,97688.97
2023-03-02T22:03:02.179Z,97689.16
2023-03-02T22:05:30.175Z,97689.56
2023-03-02T22:07:57.912Z,97686.53
2023-03-02T22:10:40.423Z,97691.63
2023-03-02T22:13:14.506Z,97687.00
2023-03-02T22:15:42.225Z,97677.38
2023-03-02T22:18:15.356Z,97675.91
2023-03-02T22:20:43.682Z,97673.25
2023-03-02T22:23:16.270Z,97673.41
2023-03-02T22:25:44.112Z,97663.38
2023-03-02T22:28:22.534Z,97666.09
2023-03-02T22:30:53.475Z,97664.75
2023-03-02T22:33:23.015Z,97666.75
2023-03-02T22:35:51.686Z,97659.56
2023-03-02T22:38:25.071Z,97659.47
2023-03-02T22:40:53.445Z,97662.63
2023-03-02T22:43:29.448Z,97651.47
2023-03-02T22:46:10.777Z,97657.38
2023-03-02T22:48:38.684Z,97655.13
2023-03-02T22:51:14.825Z,97657.50
2023-03-02T22:53:50.574Z,97640.53
2023-03-02T22:56:50.582Z,97646.88
2023-03-02T22:59:22.707Z,97646.03
2023-03-02T23:01:51.627Z,97646.63
2023-03-02T23:04:21.294Z,97644.06
2023-03-02T23:06:55.538Z,97642.38
2023-03-02T23:09:25.304Z,97641.19
2023-03-02T23:11:54.527Z,97640.47
2023-03-02T23:14:31.318Z,97638.94
2023-03-02T23:17:00.992Z,97635.47
2023-03-02T23:19:29.598Z,97631.38
2023-03-02T23:21:57.981Z,97632.84
2023-03-02T23:24:25.815Z,97632.59
2023-03-02T23:26:53.599Z,97640.91
2023-03-02T23:29:21.525Z,97634.19
2023-03-02T23:31:49.376Z,97629.34
2023-03-02T23:34:17.187Z,97631.69
2023-03-02T23:36:44.864Z,97625.88
2023-03-02T23:39:12.675Z,97622.44
2023-03-02T23:41:40.409Z,97613.19
2023-03-02T23:44:08.634Z,97612.72
2023-03-02T23:46:36.342Z,97615.88
2023-03-02T23:49:04.128Z,97605.28
2023-03-02T23:51:31.840Z,97610.91
2023-03-02T23:53:59.520Z,97606.28
2023-03-02T23:56:27.265Z,97608.69
2023-03-02T23:58:55.228Z,97613.59
